Time;durP1;ratioP1;P1;durP2;ratioP2;P2;SDS_P1;SDS_P2;PMS_P1;PMS_P2;Temp;Humidity;BMP_temperature;BMP_pressure;BME280_temperature;BME280_humidity;BME280_pressure;Samples;Min_cycle;Max_cycle;Signal;HPM_P1;HPM_P2
2023/10/21 00:00:30;;;;;;;0.00;0.00;;;;;;;;;;1745368;28;20256;-64
2023/10/21 00:01:21;;;;;;;0.00;0.00;;;;;;;;;;1744655;28;20328;-64
2023/10/21 00:02:13;;;;;;;0.00;0.00;;;;;;;;;;1743898;28;20209;-64
2023/10/21 00:03:04;;;;;;;0.00;0.00;;;;;;;;;;1741189;28;20245;-64
2023/10/21 00:03:55;;;;;;;0.00;0.00;;;;;;;;;;1746961;28;20194;-64
2023/10/21 00:04:47;;;;;;;0.00;0.00;;;;;;;;;;1744478;28;20581;-64
2023/10/21 00:05:38;;;;;;;0.00;0.00;;;;;;;;;;1745057;28;20241;-64
2023/10/21 00:06:29;;;;;;;0.00;0.00;;;;;;;;;;1745042;28;20217;-64
2023/10/21 00:07:22;;;;;;;0.00;0.00;;;;;;;;;;1745079;28;20202;-64
2023/10/21 00:08:13;;;;;;;0.00;0.00;;;;;;;;;;1744889;28;20213;-63
2023/10/21 00:09:05;;;;;;;0.00;0.00;;;;;;;;;;1744981;28;20198;-63
2023/10/21 00:09:56;;;;;;;0.00;0.00;;;;;;;;;;1744771;28;20241;-63
2023/10/21 00:10:47;;;;;;;0.00;0.00;;;;;;;;;;1745464;28;21005;-63
2023/10/21 00:11:39;;;;;;;0.00;0.00;;;;;;;;;;1744780;28;20209;-63
2023/10/21 00:12:30;;;;;;;0.00;0.00;;;;;;;;;;1745491;28;20241;-63
2023/10/21 00:13:22;;;;;;;0.00;0.00;;;;;;;;;;1744582;28;20264;-64
2023/10/21 00:14:15;;;;;;;0.00;0.00;;;;;;;;;;1747190;28;20202;-63
2023/10/21 00:15:07;;;;;;;0.00;0.00;;;;;;;;;;1744250;28;20240;-63
2023/10/21 00:15:58;;;;;;;0.00;0.00;;;;;;;;;;1746247;28;20194;-64
2023/10/21 00:16:51;;;;;;;0.00;0.00;;;;;;;;;;1744789;28;20735;-64
2023/10/21 00:17:42;;;;;;;0.00;0.00;;;;;;;;;;1745409;28;20937;-64
2023/10/21 00:18:33;;;;;;;0.00;0.00;;;;;;;;;;1748329;28;20267;-64
2023/10/21 00:19:25;;;;;;;0.00;0.00;;;;;;;;;;1746530;28;20213;-63
2023/10/21 00:20:16;;;;;;;0.00;0.00;;;;;;;;;;1744923;28;20756;-64
2023/10/21 00:21:07;;;;;;;0.00;0.00;;;;;;;;;;1746482;28;20366;-64
2023/10/21 00:21:59;;;;;;;0.00;0.00;;;;;;;;;;1745900;28;20205;-64
2023/10/21 00:22:51;;;;;;;0.00;0.00;;;;;;;;;;1746652;28;20633;-64
2023/10/21 00:23:42;;;;;;;0.00;0.00;;;;;;;;;;1746344;28;20481;-64
2023/10/21 00:24:34;;;;;;;0.00;0.00;;;;;;;;;;1746778;28;20206;-63
2023/10/21 00:25:25;;;;;;;0.00;0.00;;;;;;;;;;1745955;28;20258;-64
2023/10/21 00:26:17;;;;;;;0.00;0.00;;;;;;;;;;1745971;28;20205;-63
2023/10/21 00:27:08;;;;;;;0.00;0.00;;;;;;;;;;1746237;28;20692;-64
2023/10/21 00:27:59;;;;;;;0.00;0.00;;;;;;;;;;1747466;28;20289;-64
2023/10/21 00:28:51;;;;;;;0.00;0.00;;;;;;;;;;1746482;28;20206;-64
2023/10/21 00:29:43;;;;;;;0.00;0.00;;;;;;;;;;1746098;28;20240;-64
2023/10/21 00:30:34;;;;;;;0.00;0.00;;;;;;;;;;1745878;28;20234;-64
2023/10/21 00:31:26;;;;;;;0.10;0.10;;;;;;;;;;1746239;28;20202;-64
2023/10/21 00:32:17;;;;;;;0.00;0.00;;;;;;;;;;1746403;28;20305;-64
2023/10/21 00:33:08;;;;;;;0.00;0.00;;;;;;;;;;1746305;28;20780;-64
2023/10/21 00:34:00;;;;;;;0.00;0.00;;;;;;;;;;1746396;28;20281;-64
2023/10/21 00:34:52;;;;;;;0.00;0.00;;;;;;;;;;1745614;28;20225;-64
2023/10/21 00:35:45;;;;;;;0.00;0.00;;;;;;;;;;1746660;28;20197;-64
2023/10/21 00:36:37;;;;;;;0.00;0.00;;;;;;;;;;1746198;28;20216;-64
2023/10/21 00:37:28;;;;;;;0.00;0.00;;;;;;;;;;1746701;28;20289;-64
2023/10/21 00:38:19;;;;;;;0.00;0.00;;;;;;;;;;1746050;28;20210;-64
2023/10/21 00:39:11;;;;;;;0.00;0.00;;;;;;;;;;1746946;28;20198;-64
2023/10/21 00:40:03;;;;;;;0.00;0.00;;;;;;;;;;1746314;28;22209;-64
2023/10/21 00:40:55;;;;;;;0.00;0.00;;;;;;;;;;1748110;28;20193;-64
2023/10/21 00:41:47;;;;;;;0.00;0.00;;;;;;;;;;1746249;28;20213;-64
2023/10/21 00:42:38;;;;;;;0.00;0.00;;;;;;;;;;1746864;28;20256;-63
2023/10/21 00:43:36;;;;;;;0.00;0.00;;;;;;;;;;1746495;28;20301;-64
2023/10/21 00:44:28;;;;;;;0.00;0.00;;;;;;;;;;1746364;28;20210;-64
2023/10/21 00:45:20;;;;;;;0.00;0.00;;;;;;;;;;1746703;28;20264;-64
2023/10/21 00:46:12;;;;;;;0.00;0.00;;;;;;;;;;1746589;28;20344;-64
2023/10/21 00:47:04;;;;;;;0.00;0.00;;;;;;;;;;1746521;28;20845;-64
2023/10/21 00:47:55;;;;;;;0.00;0.00;;;;;;;;;;1746684;28;20238;-63
2023/10/21 00:48:48;;;;;;;0.00;0.00;;;;;;;;;;1746417;28;20224;-64
2023/10/21 00:49:39;;;;;;;0.00;0.00;;;;;;;;;;1747969;28;20289;-63
2023/10/21 00:50:30;;;;;;;0.00;0.00;;;;;;;;;;1746498;28;20249;-64
2023/10/21 00:51:23;;;;;;;0.00;0.00;;;;;;;;;;1746146;28;20199;-63
2023/10/21 00:52:14;;;;;;;0.00;0.00;;;;;;;;;;1746342;28;20339;-63
2023/10/21 00:53:05;;;;;;;0.00;0.00;;;;;;;;;;1746104;28;20297;-63
2023/10/21 00:53:58;;;;;;;0.00;0.00;;;;;;;;;;1746667;28;20364;-64
2023/10/21 00:54:49;;;;;;;0.00;0.00;;;;;;;;;;1743178;28;20708;-63
2023/10/21 00:55:40;;;;;;;0.00;0.00;;;;;;;;;;1746942;28;20225;-64
2023/10/21 00:56:32;;;;;;;0.00;0.00;;;;;;;;;;1746332;28;20688;-63
2023/10/21 00:57:24;;;;;;;0.00;0.00;;;;;;;;;;1746662;28;20683;-63
2023/10/21 00:58:15;;;;;;;0.00;0.00;;;;;;;;;;1746454;28;20681;-64
2023/10/21 00:59:08;;;;;;;0.00;0.00;;;;;;;;;;1746652;28;20657;-64
2023/10/21 00:59:59;;;;;;;0.00;0.00;;;;;;;;;;1746268;28;20297;-63
2023/10/21 01:00:51;;;;;;;0.00;0.00;;;;;;;;;;1746919;28;20281;-64
2023/10/21 01:01:44;;;;;;;0.00;0.00;;;;;;;;;;1746481;28;20648;-63
2023/10/21 01:02:35;;;;;;;0.00;0.00;;;;;;;;;;1745711;28;20213;-64
2023/10/21 01:03:26;;;;;;;0.00;0.00;;;;;;;;;;1745155;28;20202;-64
2023/10/21 01:04:19;;;;;;;0.00;0.00;;;;;;;;;;1747954;28;20199;-64
2023/10/21 01:05:12;;;;;;;0.00;0.00;;;;;;;;;;1746051;28;20260;-64
2023/10/21 01:06:04;;;;;;;0.00;0.00;;;;;;;;;;1746875;28;20734;-65
2023/10/21 01:06:55;;;;;;;0.00;0.00;;;;;;;;;;1747907;28;20233;-64
2023/10/21 01:07:46;;;;;;;0.00;0.00;;;;;;;;;;1746447;28;20206;-64
2023/10/21 01:08:42;;;;;;;0.00;0.00;;;;;;;;;;1748040;28;20205;-64
2023/10/21 01:09:33;;;;;;;0.00;0.00;;;;;;;;;;1746529;28;20685;-64
2023/10/21 01:10:25;;;;;;;0.00;0.00;;;;;;;;;;1746480;28;20209;-64
2023/10/21 01:11:16;;;;;;;0.00;0.00;;;;;;;;;;1746572;28;20261;-65
2023/10/21 01:12:07;;;;;;;0.00;0.00;;;;;;;;;;1745839;28;20198;-64
2023/10/21 01:12:59;;;;;;;0.00;0.00;;;;;;;;;;1746410;28;20203;-65
2023/10/21 01:13:51;;;;;;;0.00;0.00;;;;;;;;;;1746426;28;20252;-64
2023/10/21 01:14:43;;;;;;;0.00;0.00;;;;;;;;;;1746452;28;20683;-64
2023/10/21 01:15:34;;;;;;;0.00;0.00;;;;;;;;;;1746282;28;20257;-64
2023/10/21 01:16:28;;;;;;;0.10;0.10;;;;;;;;;;1745956;28;20210;-64
2023/10/21 01:17:20;;;;;;;0.00;0.00;;;;;;;;;;1746513;28;20214;-64
2023/10/21 01:18:11;;;;;;;0.00;0.00;;;;;;;;;;1745774;28;20248;-64
2023/10/21 01:19:02;;;;;;;0.00;0.00;;;;;;;;;;1746602;28;20210;-64
2023/10/21 01:19:54;;;;;;;0.00;0.00;;;;;;;;;;1745988;28;20783;-64
2023/10/21 01:20:45;;;;;;;0.00;0.00;;;;;;;;;;1746969;28;20233;-64
2023/10/21 01:21:37;;;;;;;0.00;0.00;;;;;;;;;;1744765;28;20258;-64
2023/10/21 01:22:28;;;;;;;0.00;0.00;;;;;;;;;;1746294;28;20301;-64
2023/10/21 01:23:21;;;;;;;0.00;0.00;;;;;;;;;;1747410;28;20592;-64
2023/10/21 01:24:13;;;;;;;0.00;0.00;;;;;;;;;;1747824;28;20210;-64
2023/10/21 01:25:04;;;;;;;0.00;0.00;;;;;;;;;;1745606;28;20218;-64
2023/10/21 01:25:55;;;;;;;0.00;0.00;;;;;;;;;;1748008;28;20661;-64
2023/10/21 01:26:47;;;;;;;0.00;0.00;;;;;;;;;;1746394;28;20233;-64
2023/10/21 01:27:39;;;;;;;0.00;0.00;;;;;;;;;;1748001;28;20650;-64
2023/10/21 01:28:31;;;;;;;0.00;0.00;;;;;;;;;;1746012;28;20627;-64
2023/10/21 01:29:22;;;;;;;0.00;0.00;;;;;;;;;;1746440;28;20242;-64
2023/10/21 01:30:13;;;;;;;0.00;0.00;;;;;;;;;;1745984;28;20308;-65
2023/10/21 01:31:05;;;;;;;0.00;0.00;;;;;;;;;;1746161;28;20202;-64
2023/10/21 01:31:56;;;;;;;0.03;0.03;;;;;;;;;;1746003;28;20232;-64
2023/10/21 01:32:47;;;;;;;0.00;0.00;;;;;;;;;;1745921;28;20327;-64
2023/10/21 01:33:39;;;;;;;0.00;0.00;;;;;;;;;;1747469;28;20336;-64
2023/10/21 01:34:30;;;;;;;0.00;0.00;;;;;;;;;;1745967;28;20206;-64
2023/10/21 01:35:21;;;;;;;0.00;0.00;;;;;;;;;;1746235;28;20692;-64
2023/10/21 01:36:13;;;;;;;0.00;0.00;;;;;;;;;;1746355;28;20205;-64
2023/10/21 01:37:04;;;;;;;0.00;0.00;;;;;;;;;;1745941;28;20244;-64
2023/10/21 01:37:55;;;;;;;0.00;0.00;;;;;;;;;;1746427;28;21078;-64
2023/10/21 01:38:49;;;;;;;0.00;0.00;;;;;;;;;;1746143;28;20321;-64
2023/10/21 01:39:40;;;;;;;0.00;0.00;;;;;;;;;;1745013;28;20244;-64
2023/10/21 01:40:31;;;;;;;0.00;0.00;;;;;;;;;;1746292;28;20289;-64
2023/10/21 01:41:23;;;;;;;0.00;0.00;;;;;;;;;;1745541;28;20663;-64
2023/10/21 01:42:14;;;;;;;0.00;0.00;;;;;;;;;;1746565;28;20214;-64
2023/10/21 01:43:05;;;;;;;0.00;0.00;;;;;;;;;;1745546;28;20206;-64
2023/10/21 01:43:57;;;;;;;0.00;0.00;;;;;;;;;;1746190;28;20221;-63
2023/10/21 01:44:48;;;;;;;0.00;0.00;;;;;;;;;;1745231;28;20229;-63
2023/10/21 01:45:40;;;;;;;0.00;0.00;;;;;;;;;;1746141;28;20234;-63
2023/10/21 01:46:31;;;;;;;0.00;0.00;;;;;;;;;;1745760;28;20210;-64
2023/10/21 01:47:22;;;;;;;0.00;0.00;;;;;;;;;;1746050;28;20206;-63
2023/10/21 01:48:14;;;;;;;0.00;0.00;;;;;;;;;;1745770;28;20202;-64
2023/10/21 01:49:05;;;;;;;0.00;0.00;;;;;;;;;;1745125;28;20623;-63
2023/10/21 01:49:57;;;;;;;0.00;0.00;;;;;;;;;;1745722;28;20313;-63
2023/10/21 01:50:49;;;;;;;0.00;0.00;;;;;;;;;;1746334;28;20202;-63
2023/10/21 01:51:40;;;;;;;0.00;0.00;;;;;;;;;;1744402;28;20240;-63
2023/10/21 01:52:31;;;;;;;0.00;0.00;;;;;;;;;;1746113;28;20676;-63
2023/10/21 01:53:23;;;;;;;0.00;0.00;;;;;;;;;;1745257;28;20242;-63
2023/10/21 01:54:15;;;;;;;0.00;0.00;;;;;;;;;;1746032;28;20237;-63
2023/10/21 01:55:08;;;;;;;0.00;0.00;;;;;;;;;;1745378;28;20236;-64
2023/10/21 01:56:01;;;;;;;0.00;0.00;;;;;;;;;;1746605;28;20198;-63
2023/10/21 01:56:52;;;;;;;0.00;0.00;;;;;;;;;;1745589;28;20249;-63
2023/10/21 01:57:44;;;;;;;0.00;0.00;;;;;;;;;;1746175;28;20207;-63
2023/10/21 01:58:36;;;;;;;0.00;0.00;;;;;;;;;;1745956;28;20202;-63
2023/10/21 01:59:28;;;;;;;0.00;0.00;;;;;;;;;;1745816;28;20606;-63
2023/10/21 02:00:19;;;;;;;0.00;0.00;;;;;;;;;;1745642;28;20217;-64
2023/10/21 02:01:12;;;;;;;0.00;0.00;;;;;;;;;;1745992;28;20212;-63
2023/10/21 02:02:03;;;;;;;0.00;0.00;;;;;;;;;;1746172;28;20234;-63
2023/10/21 02:02:55;;;;;;;0.00;0.00;;;;;;;;;;1745747;28;20200;-63
2023/10/21 02:03:47;;;;;;;0.00;0.00;;;;;;;;;;1745912;28;20206;-63
2023/10/21 02:04:38;;;;;;;0.00;0.00;;;;;;;;;;1743901;28;20293;-63
2023/10/21 02:05:31;;;;;;;0.00;0.00;;;;;;;;;;1745666;28;20731;-63
2023/10/21 02:06:22;;;;;;;0.00;0.00;;;;;;;;;;1745401;28;20626;-63
2023/10/21 02:07:14;;;;;;;0.00;0.00;;;;;;;;;;1746003;28;20202;-63
2023/10/21 02:08:06;;;;;;;0.00;0.00;;;;;;;;;;1745364;28;20206;-64
2023/10/21 02:08:57;;;;;;;0.00;0.00;;;;;;;;;;1746015;28;20240;-63
2023/10/21 02:09:50;;;;;;;0.00;0.00;;;;;;;;;;1742427;28;20194;-63
2023/10/21 02:10:42;;;;;;;0.00;0.00;;;;;;;;;;1745893;28;20237;-63
2023/10/21 02:11:33;;;;;;;0.00;0.00;;;;;;;;;;1745216;28;20774;-63
2023/10/21 02:12:24;;;;;;;0.00;0.00;;;;;;;;;;1745796;28;20661;-63
2023/10/21 02:13:16;;;;;;;0.00;0.00;;;;;;;;;;1745520;28;20207;-63
2023/10/21 02:14:07;;;;;;;0.00;0.00;;;;;;;;;;1745770;28;20217;-64
2023/10/21 02:14:58;;;;;;;0.00;0.00;;;;;;;;;;1745134;28;20245;-63
2023/10/21 02:15:51;;;;;;;0.00;0.00;;;;;;;;;;1745836;28;20206;-63
2023/10/21 02:16:42;;;;;;;0.00;0.00;;;;;;;;;;1744719;28;20207;-63
2023/10/21 02:17:34;;;;;;;0.00;0.00;;;;;;;;;;1745915;28;20288;-63
2023/10/21 02:18:25;;;;;;;0.00;0.00;;;;;;;;;;1745139;28;20206;-63
2023/10/21 02:19:17;;;;;;;0.00;0.00;;;;;;;;;;1747354;28;20234;-64
2023/10/21 02:20:10;;;;;;;0.00;0.00;;;;;;;;;;1745222;28;20300;-63
2023/10/21 02:21:04;;;;;;;0.00;0.00;;;;;;;;;;1745634;28;20238;-63
2023/10/21 02:21:56;;;;;;;0.00;0.00;;;;;;;;;;1745397;28;20505;-64
2023/10/21 02:22:47;;;;;;;0.00;0.00;;;;;;;;;;1745830;28;20241;-63
2023/10/21 02:23:39;;;;;;;0.00;0.00;;;;;;;;;;1745231;28;20616;-63
2023/10/21 02:24:34;;;;;;;0.00;0.00;;;;;;;;;;1745570;28;20344;-63
2023/10/21 02:25:27;;;;;;;0.00;0.00;;;;;;;;;;1745464;28;20276;-63
2023/10/21 02:26:19;;;;;;;0.00;0.00;;;;;;;;;;1745352;28;20305;-63
2023/10/21 02:27:12;;;;;;;0.00;0.00;;;;;;;;;;1745183;28;20221;-63
2023/10/21 02:28:05;;;;;;;0.00;0.00;;;;;;;;;;1748211;28;20229;-63
2023/10/21 02:28:57;;;;;;;0.00;0.00;;;;;;;;;;1745489;28;20221;-63
2023/10/21 02:29:49;;;;;;;0.00;0.00;;;;;;;;;;1745855;28;20355;-63
2023/10/21 02:30:42;;;;;;;0.00;0.00;;;;;;;;;;1745654;28;20305;-63
2023/10/21 02:31:33;;;;;;;0.00;0.00;;;;;;;;;;1745060;28;20337;-63
2023/10/21 02:32:25;;;;;;;0.00;0.00;;;;;;;;;;1745736;28;20234;-63
2023/10/21 02:33:16;;;;;;;0.00;0.00;;;;;;;;;;1743124;28;20657;-63
2023/10/21 02:34:08;;;;;;;0.00;0.00;;;;;;;;;;1745783;28;20259;-63
2023/10/21 02:35:00;;;;;;;0.00;0.00;;;;;;;;;;1744781;28;20230;-63
2023/10/21 02:35:52;;;;;;;0.00;0.00;;;;;;;;;;1746104;28;20199;-63
2023/10/21 02:36:45;;;;;;;0.00;0.00;;;;;;;;;;1744943;28;20206;-63
2023/10/21 02:37:36;;;;;;;0.00;0.00;;;;;;;;;;1745621;28;20559;-63
2023/10/21 02:38:27;;;;;;;0.00;0.00;;;;;;;;;;1745133;28;20206;-64
2023/10/21 02:39:19;;;;;;;0.00;0.00;;;;;;;;;;1746776;28;21655;-64
2023/10/21 02:40:15;;;;;;;0.00;0.00;;;;;;;;;;1744927;28;20588;-63
2023/10/21 02:41:08;;;;;;;0.00;0.00;;;;;;;;;;1744924;28;20226;-63
2023/10/21 02:41:59;;;;;;;0.00;0.00;;;;;;;;;;1747203;28;20317;-64
2023/10/21 02:42:51;;;;;;;0.00;0.00;;;;;;;;;;1745939;28;20615;-63
2023/10/21 02:43:42;;;;;;;0.00;0.00;;;;;;;;;;1744790;28;20775;-63
2023/10/21 02:44:35;;;;;;;0.10;0.10;;;;;;;;;;1745389;28;20241;-63
2023/10/21 02:45:27;;;;;;;0.00;0.00;;;;;;;;;;1744387;28;20363;-64
2023/10/21 02:46:18;;;;;;;0.00;0.00;;;;;;;;;;1745213;28;20671;-64
2023/10/21 02:47:09;;;;;;;0.00;0.00;;;;;;;;;;1745347;28;20210;-63
2023/10/21 02:48:01;;;;;;;0.00;0.00;;;;;;;;;;1745132;28;20624;-63
2023/10/21 02:48:52;;;;;;;0.00;0.00;;;;;;;;;;1746999;28;20668;-64
2023/10/21 02:49:43;;;;;;;0.00;0.00;;;;;;;;;;1744504;28;20214;-63
2023/10/21 02:50:35;;;;;;;0.00;0.00;;;;;;;;;;1745618;28;20241;-63
2023/10/21 02:51:27;;;;;;;0.03;0.03;;;;;;;;;;1745011;28;20248;-63
2023/10/21 02:52:18;;;;;;;0.00;0.00;;;;;;;;;;1746522;28;20619;-63
2023/10/21 02:53:10;;;;;;;0.00;0.00;;;;;;;;;;1744472;28;20568;-63
2023/10/21 02:54:01;;;;;;;0.00;0.00;;;;;;;;;;1745373;28;20781;-63
2023/10/21 02:54:52;;;;;;;0.00;0.00;;;;;;;;;;1745156;28;20198;-64
2023/10/21 02:55:44;;;;;;;0.00;0.00;;;;;;;;;;1745791;28;20268;-63
2023/10/21 02:56:37;;;;;;;0.00;0.00;;;;;;;;;;1744819;28;20234;-63
2023/10/21 02:57:29;;;;;;;0.00;0.00;;;;;;;;;;1746611;28;20217;-63
2023/10/21 02:58:21;;;;;;;0.00;0.00;;;;;;;;;;1744925;28;20259;-63
2023/10/21 02:59:12;;;;;;;0.00;0.00;;;;;;;;;;1745527;28;20248;-63
2023/10/21 03:00:05;;;;;;;0.00;0.00;;;;;;;;;;1745035;28;20237;-63
2023/10/21 03:00:57;;;;;;;0.00;0.00;;;;;;;;;;1745515;28;20623;-63
2023/10/21 03:01:48;;;;;;;0.00;0.00;;;;;;;;;;1745236;28;20241;-64
2023/10/21 03:02:40;;;;;;;0.00;0.00;;;;;;;;;;1745549;28;20252;-64
2023/10/21 03:03:31;;;;;;;0.00;0.00;;;;;;;;;;1745081;28;20238;-63
2023/10/21 03:04:22;;;;;;;0.00;0.00;;;;;;;;;;1745931;28;20711;-63
2023/10/21 03:05:14;;;;;;;0.00;0.00;;;;;;;;;;1746881;28;20226;-63
2023/10/21 03:06:05;;;;;;;0.00;0.00;;;;;;;;;;1744511;28;20261;-64
2023/10/21 03:06:56;;;;;;;0.00;0.00;;;;;;;;;;1748027;28;20313;-63
2023/10/21 03:07:48;;;;;;;0.00;0.00;;;;;;;;;;1745630;28;20262;-64
2023/10/21 03:08:39;;;;;;;0.00;0.00;;;;;;;;;;1745170;28;20250;-64
2023/10/21 03:09:30;;;;;;;0.00;0.00;;;;;;;;;;1745318;28;20202;-63
2023/10/21 03:10:22;;;;;;;0.00;0.00;;;;;;;;;;1745395;28;20232;-63
2023/10/21 03:11:14;;;;;;;0.00;0.00;;;;;;;;;;1745478;28;20297;-64
2023/10/21 03:12:08;;;;;;;0.00;0.00;;;;;;;;;;1745366;28;20198;-64
2023/10/21 03:12:59;;;;;;;0.00;0.00;;;;;;;;;;1745136;28;20232;-64
2023/10/21 03:13:51;;;;;;;0.00;0.00;;;;;;;;;;1747321;28;20689;-63
2023/10/21 03:14:42;;;;;;;0.00;0.00;;;;;;;;;;1744711;28;20248;-63
2023/10/21 03:15:34;;;;;;;0.00;0.00;;;;;;;;;;1745128;28;20719;-64
2023/10/21 03:16:26;;;;;;;0.00;0.00;;;;;;;;;;1745134;28;20675;-64
2023/10/21 03:17:17;;;;;;;0.00;0.00;;;;;;;;;;1745058;28;20248;-64
2023/10/21 03:18:09;;;;;;;0.00;0.00;;;;;;;;;;1746601;28;20217;-64
2023/10/21 03:19:00;;;;;;;0.00;0.00;;;;;;;;;;1744979;28;20732;-64
2023/10/21 03:19:51;;;;;;;0.00;0.00;;;;;;;;;;1745484;28;20206;-64
2023/10/21 03:20:43;;;;;;;0.00;0.00;;;;;;;;;;1745358;28;20324;-64
2023/10/21 03:21:34;;;;;;;0.00;0.00;;;;;;;;;;1744626;28;20270;-64
2023/10/21 03:22:25;;;;;;;0.00;0.00;;;;;;;;;;1746929;28;20648;-64
2023/10/21 03:23:18;;;;;;;0.00;0.00;;;;;;;;;;1746257;28;20720;-64
2023/10/21 03:24:09;;;;;;;0.00;0.00;;;;;;;;;;1738639;28;20203;-64
2023/10/21 03:25:00;;;;;;;0.00;0.00;;;;;;;;;;1737555;28;20745;-63
2023/10/21 03:25:56;;;;;;;0.00;0.00;;;;;;;;;;1738859;28;20223;-63
2023/10/21 03:26:47;;;;;;;0.00;0.00;;;;;;;;;;1738165;28;20207;-63
2023/10/21 03:27:41;;;;;;;0.00;0.00;;;;;;;;;;1739579;28;20515;-63
2023/10/21 03:28:32;;;;;;;0.00;0.00;;;;;;;;;;1738265;28;20203;-63
2023/10/21 03:29:23;;;;;;;0.00;0.00;;;;;;;;;;1738090;28;20210;-63
2023/10/21 03:30:16;;;;;;;0.00;0.00;;;;;;;;;;1737862;28;20203;-63
2023/10/21 03:31:07;;;;;;;0.00;0.00;;;;;;;;;;1738317;28;20211;-63
2023/10/21 03:31:58;;;;;;;0.00;0.00;;;;;;;;;;1737966;28;20339;-63
2023/10/21 03:32:50;;;;;;;0.00;0.00;;;;;;;;;;1738563;28;20195;-63
2023/10/21 03:33:41;;;;;;;0.00;0.00;;;;;;;;;;1737565;28;20322;-63
2023/10/21 03:34:32;;;;;;;0.00;0.00;;;;;;;;;;1738428;28;20213;-63
2023/10/21 03:35:24;;;;;;;0.00;0.00;;;;;;;;;;1737323;28;20222;-64
2023/10/21 03:36:15;;;;;;;0.00;0.00;;;;;;;;;;1738317;28;20527;-63
2023/10/21 03:37:07;;;;;;;0.00;0.00;;;;;;;;;;1738055;28;20207;-63
2023/10/21 03:37:59;;;;;;;0.00;0.00;;;;;;;;;;1738037;28;20362;-63
2023/10/21 03:38:51;;;;;;;0.00;0.00;;;;;;;;;;1738380;28;20294;-63
2023/10/21 03:39:42;;;;;;;0.00;0.00;;;;;;;;;;1737859;28;20241;-63
2023/10/21 03:40:34;;;;;;;0.00;0.00;;;;;;;;;;1738448;28;20482;-63
2023/10/21 03:41:25;;;;;;;0.00;0.00;;;;;;;;;;1737895;28;20607;-63
2023/10/21 03:42:17;;;;;;;0.00;0.00;;;;;;;;;;1737975;28;20210;-63
2023/10/21 03:43:11;;;;;;;0.00;0.00;;;;;;;;;;1737987;28;20207;-63
2023/10/21 03:44:03;;;;;;;0.00;0.00;;;;;;;;;;1738126;28;20721;-63
2023/10/21 03:44:54;;;;;;;0.00;0.00;;;;;;;;;;1737570;28;20839;-63
2023/10/21 03:45:46;;;;;;;0.00;0.00;;;;;;;;;;1738278;28;20209;-63
2023/10/21 03:46:38;;;;;;;0.00;0.00;;;;;;;;;;1737836;28;20759;-63
2023/10/21 03:47:29;;;;;;;0.00;0.00;;;;;;;;;;1738504;28;20234;-63
2023/10/21 03:48:20;;;;;;;0.00;0.00;;;;;;;;;;1737792;28;20261;-63
2023/10/21 03:49:12;;;;;;;0.00;0.00;;;;;;;;;;1737989;28;20653;-63
2023/10/21 03:50:03;;;;;;;0.00;0.00;;;;;;;;;;1737244;28;20289;-63
2023/10/21 03:51:01;;;;;;;0.00;0.00;;;;;;;;;;1738802;28;20238;-63
2023/10/21 03:51:53;;;;;;;0.00;0.00;;;;;;;;;;1737732;28;20195;-63
2023/10/21 03:52:44;;;;;;;0.00;0.00;;;;;;;;;;1737896;28;20211;-63
2023/10/21 03:53:35;;;;;;;0.00;0.00;;;;;;;;;;1737879;28;20203;-63
2023/10/21 03:54:27;;;;;;;0.00;0.00;;;;;;;;;;1737875;28;20207;-62
2023/10/21 03:55:19;;;;;;;0.00;0.00;;;;;;;;;;1737716;28;21948;-62
2023/10/21 03:56:10;;;;;;;0.00;0.00;;;;;;;;;;1732758;28;20539;-63
2023/10/21 03:57:02;;;;;;;0.00;0.00;;;;;;;;;;1737843;28;20293;-62
2023/10/21 03:57:54;;;;;;;0.00;0.00;;;;;;;;;;1738722;28;20207;-63
2023/10/21 03:58:47;;;;;;;0.00;0.00;;;;;;;;;;1737680;28;20241;-63
2023/10/21 03:59:39;;;;;;;0.00;0.00;;;;;;;;;;1738094;28;20748;-63
2023/10/21 04:00:30;;;;;;;0.00;0.00;;;;;;;;;;1737834;28;20241;-63
2023/10/21 04:01:21;;;;;;;0.00;0.00;;;;;;;;;;1737844;28;20226;-62
2023/10/21 04:02:13;;;;;;;0.00;0.00;;;;;;;;;;1737922;28;20218;-63
2023/10/21 04:03:04;;;;;;;0.00;0.00;;;;;;;;;;1737507;28;20253;-63
2023/10/21 04:03:56;;;;;;;0.00;0.00;;;;;;;;;;1738403;28;20194;-63
2023/10/21 04:04:47;;;;;;;0.00;0.00;;;;;;;;;;1737260;28;20246;-63
2023/10/21 04:05:39;;;;;;;0.00;0.00;;;;;;;;;;1737938;28;20305;-63
2023/10/21 04:06:31;;;;;;;0.00;0.00;;;;;;;;;;1736321;28;20206;-63
2023/10/21 04:07:23;;;;;;;0.00;0.00;;;;;;;;;;1738000;28;20250;-63
2023/10/21 04:08:15;;;;;;;0.00;0.00;;;;;;;;;;1737644;28;20202;-63
2023/10/21 04:09:07;;;;;;;0.00;0.00;;;;;;;;;;1738038;28;20254;-63
2023/10/21 04:09:59;;;;;;;0.00;0.00;;;;;;;;;;1738226;28;20306;-64
2023/10/21 04:10:52;;;;;;;0.00;0.00;;;;;;;;;;1738074;28;20332;-63
2023/10/21 04:11:43;;;;;;;0.00;0.00;;;;;;;;;;1737966;28;20214;-63
2023/10/21 04:12:34;;;;;;;0.00;0.00;;;;;;;;;;1738422;28;20637;-63
2023/10/21 04:13:26;;;;;;;0.00;0.00;;;;;;;;;;1737215;28;20289;-63
2023/10/21 04:14:19;;;;;;;0.00;0.00;;;;;;;;;;1738272;28;20203;-63
2023/10/21 04:15:10;;;;;;;0.00;0.00;;;;;;;;;;1736943;28;20622;-63
2023/10/21 04:16:03;;;;;;;0.00;0.00;;;;;;;;;;1738326;28;20202;-63
2023/10/21 04:16:54;;;;;;;0.00;0.00;;;;;;;;;;1737960;28;20199;-63
2023/10/21 04:17:45;;;;;;;0.00;0.00;;;;;;;;;;1738040;28;20795;-63
2023/10/21 04:18:37;;;;;;;0.00;0.00;;;;;;;;;;1737718;28;20225;-63
2023/10/21 04:19:28;;;;;;;0.00;0.00;;;;;;;;;;1737668;28;20234;-63
2023/10/21 04:20:19;;;;;;;0.00;0.00;;;;;;;;;;1737634;28;20206;-63
2023/10/21 04:21:11;;;;;;;0.00;0.00;;;;;;;;;;1738016;28;20202;-64
2023/10/21 04:22:02;;;;;;;0.00;0.00;;;;;;;;;;1737265;28;20234;-63
2023/10/21 04:22:55;;;;;;;0.00;0.00;;;;;;;;;;1738438;28;20227;-63
2023/10/21 04:23:46;;;;;;;0.00;0.00;;;;;;;;;;1737393;28;20340;-63
2023/10/21 04:24:38;;;;;;;0.00;0.00;;;;;;;;;;1737829;28;20209;-63
2023/10/21 04:25:29;;;;;;;0.00;0.00;;;;;;;;;;1737462;28;20665;-64
2023/10/21 04:26:20;;;;;;;0.00;0.00;;;;;;;;;;1737888;28;20258;-64
2023/10/21 04:27:12;;;;;;;0.00;0.00;;;;;;;;;;1738157;28;20725;-64
2023/10/21 04:28:04;;;;;;;0.00;0.00;;;;;;;;;;1739482;28;21404;-64
2023/10/21 04:28:56;;;;;;;0.00;0.00;;;;;;;;;;1738492;28;20199;-64
2023/10/21 04:29:48;;;;;;;0.00;0.00;;;;;;;;;;1737673;28;20253;-64
2023/10/21 04:30:40;;;;;;;0.00;0.00;;;;;;;;;;1738244;28;20222;-64
2023/10/21 04:31:34;;;;;;;0.00;0.00;;;;;;;;;;1737722;28;20242;-64
2023/10/21 04:32:25;;;;;;;0.00;0.00;;;;;;;;;;1737971;28;20623;-64
2023/10/21 04:33:17;;;;;;;0.00;0.00;;;;;;;;;;1736933;28;21291;-63
2023/10/21 04:34:08;;;;;;;0.00;0.00;;;;;;;;;;1738102;28;20241;-64
2023/10/21 04:35:01;;;;;;;0.00;0.00;;;;;;;;;;1737935;28;20722;-63
2023/10/21 04:35:52;;;;;;;0.00;0.00;;;;;;;;;;1738397;28;20618;-63
2023/10/21 04:36:44;;;;;;;0.00;0.00;;;;;;;;;;1737822;28;20300;-63
2023/10/21 04:37:36;;;;;;;0.00;0.00;;;;;;;;;;1738288;28;20239;-63
2023/10/21 04:38:28;;;;;;;0.00;0.00;;;;;;;;;;1737359;28;20235;-63
2023/10/21 04:39:19;;;;;;;0.00;0.00;;;;;;;;;;1738051;28;20243;-63
2023/10/21 04:40:12;;;;;;;0.00;0.00;;;;;;;;;;1737526;28;20214;-63
2023/10/21 04:41:03;;;;;;;0.00;0.00;;;;;;;;;;1738069;28;20610;-63
2023/10/21 04:41:55;;;;;;;0.00;0.00;;;;;;;;;;1738361;28;20199;-63
2023/10/21 04:42:46;;;;;;;0.00;0.00;;;;;;;;;;1737964;28;20261;-63
2023/10/21 04:43:38;;;;;;;0.00;0.00;;;;;;;;;;1737780;28;20230;-63
2023/10/21 04:44:29;;;;;;;0.00;0.00;;;;;;;;;;1735115;28;20716;-63
2023/10/21 04:45:23;;;;;;;0.00;0.00;;;;;;;;;;1737319;28;20299;-63
2023/10/21 04:46:15;;;;;;;0.00;0.00;;;;;;;;;;1737955;28;20206;-63
2023/10/21 04:47:06;;;;;;;0.00;0.00;;;;;;;;;;1737893;28;20203;-63
2023/10/21 04:47:58;;;;;;;0.00;0.00;;;;;;;;;;1738479;28;20202;-63
2023/10/21 04:48:49;;;;;;;0.00;0.00;;;;;;;;;;1738336;28;20276;-63
2023/10/21 04:49:42;;;;;;;0.00;0.00;;;;;;;;;;1738867;28;20380;-63
2023/10/21 04:50:34;;;;;;;0.00;0.00;;;;;;;;;;1737878;28;20678;-63
2023/10/21 04:51:26;;;;;;;0.00;0.00;;;;;;;;;;1737650;28;20218;-63
2023/10/21 04:52:18;;;;;;;0.10;0.10;;;;;;;;;;1737920;28;20453;-63
2023/10/21 04:53:09;;;;;;;0.00;0.00;;;;;;;;;;1737562;28;20195;-62
2023/10/21 04:54:01;;;;;;;0.00;0.00;;;;;;;;;;1738484;28;20210;-64
2023/10/21 04:54:52;;;;;;;0.00;0.00;;;;;;;;;;1737413;28;20302;-63
2023/10/21 04:55:43;;;;;;;0.00;0.00;;;;;;;;;;1738252;28;20206;-63
2023/10/21 04:56:35;;;;;;;0.03;0.03;;;;;;;;;;1737351;28;20661;-63
2023/10/21 04:57:26;;;;;;;0.00;0.00;;;;;;;;;;1738113;28;20211;-63
2023/10/21 04:58:17;;;;;;;0.00;0.00;;;;;;;;;;1737418;28;20210;-63
2023/10/21 04:59:09;;;;;;;0.00;0.00;;;;;;;;;;1737902;28;20205;-63
2023/10/21 05:00:01;;;;;;;0.00;0.00;;;;;;;;;;1738045;28;20214;-63
2023/10/21 05:00:54;;;;;;;0.00;0.00;;;;;;;;;;1738067;28;20222;-63
2023/10/21 05:01:45;;;;;;;0.00;0.00;;;;;;;;;;1737477;28;20253;-63
2023/10/21 05:02:37;;;;;;;0.00;0.00;;;;;;;;;;1738283;28;20296;-63
2023/10/21 05:03:29;;;;;;;0.00;0.00;;;;;;;;;;1737398;28;20298;-63
2023/10/21 05:04:21;;;;;;;0.00;0.00;;;;;;;;;;1739244;28;20217;-63
2023/10/21 05:05:12;;;;;;;0.00;0.00;;;;;;;;;;1738420;28;20346;-63
2023/10/21 05:06:04;;;;;;;0.00;0.00;;;;;;;;;;1739335;28;20203;-63
2023/10/21 05:06:56;;;;;;;0.00;0.00;;;;;;;;;;1738988;28;20199;-63
2023/10/21 05:07:47;;;;;;;0.00;0.00;;;;;;;;;;1739184;28;20242;-64
2023/10/21 05:08:38;;;;;;;0.00;0.00;;;;;;;;;;1739116;28;20231;-64
2023/10/21 05:09:30;;;;;;;0.00;0.00;;;;;;;;;;1734891;28;20230;-64
2023/10/21 05:10:22;;;;;;;0.00;0.00;;;;;;;;;;1737844;28;20298;-64